sensor_id;sensor_type;location;lat;lon;timestamp;P1;durP1;ratioP1;P2;durP2;ratioP2
49784;SDS011;35679;38.732;-121.358;2023-07-29T00:01:04;5.47;;;4.95;;
49784;SDS011;35679;38.732;-121.358;2023-07-29T00:03:55;5.20;;;4.70;;
49784;SDS011;35679;38.732;-121.358;2023-07-29T00:06:44;5.35;;;4.85;;
49784;SDS011;35679;38.732;-121.358;2023-07-29T00:09:34;5.25;;;4.75;;
49784;SDS011;35679;38.732;-121.358;2023-07-29T00:12:23;5.35;;;4.43;;
49784;SDS011;35679;38.732;-121.358;2023-07-29T00:15:14;5.18;;;4.57;;
49784;SDS011;35679;38.732;-121.358;2023-07-29T00:18:05;4.88;;;4.43;;
49784;SDS011;35679;38.732;-121.358;2023-07-29T00:20:56;5.22;;;4.72;;
49784;SDS011;35679;38.732;-121.358;2023-07-29T00:23:47;5.32;;;4.32;;
49784;SDS011;35679;38.732;-121.358;2023-07-29T00:26:36;5.13;;;4.70;;
49784;SDS011;35679;38.732;-121.358;2023-07-29T00:29:26;5.45;;;4.93;;
49784;SDS011;35679;38.732;-121.358;2023-07-29T00:32:15;5.00;;;4.53;;
49784;SDS011;35679;38.732;-121.358;2023-07-29T00:35:05;6.07;;;5.18;;
49784;SDS011;35679;38.732;-121.358;2023-07-29T00:37:56;7.00;;;5.80;;
49784;SDS011;35679;38.732;-121.358;2023-07-29T00:40:46;4.63;;;4.22;;
49784;SDS011;35679;38.732;-121.358;2023-07-29T00:43:36;6.13;;;4.47;;
49784;SDS011;35679;38.732;-121.358;2023-07-29T00:46:25;5.20;;;4.70;;
49784;SDS011;35679;38.732;-121.358;2023-07-29T00:49:16;4.80;;;4.30;;
49784;SDS011;35679;38.732;-121.358;2023-07-29T00:52:06;6.18;;;4.78;;
49784;SDS011;35679;38.732;-121.358;2023-07-29T00:54:56;4.95;;;4.43;;
49784;SDS011;35679;38.732;-121.358;2023-07-29T00:57:45;4.63;;;4.22;;
49784;SDS011;35679;38.732;-121.358;2023-07-29T01:00:36;4.90;;;4.45;;
49784;SDS011;35679;38.732;-121.358;2023-07-29T01:03:26;4.90;;;4.50;;
49784;SDS011;35679;38.732;-121.358;2023-07-29T01:09:44;4.45;;;4.13;;
49784;SDS011;35679;38.732;-121.358;2023-07-29T01:18:38;4.50;;;4.18;;
49784;SDS011;35679;38.732;-121.358;2023-07-29T01:21:29;5.57;;;4.55;;
49784;SDS011;35679;38.732;-121.358;2023-07-29T01:24:19;5.28;;;4.40;;
49784;SDS011;35679;38.732;-121.358;2023-07-29T01:27:09;5.00;;;4.03;;
49784;SDS011;35679;38.732;-121.358;2023-07-29T01:30:00;4.05;;;3.75;;
49784;SDS011;35679;38.732;-121.358;2023-07-29T01:33:04;4.25;;;3.80;;
49784;SDS011;35679;38.732;-121.358;2023-07-29T01:36:03;4.55;;;4.10;;
49784;SDS011;35679;38.732;-121.358;2023-07-29T01:39:01;4.70;;;4.30;;
49784;SDS011;35679;38.732;-121.358;2023-07-29T01:41:51;4.28;;;3.97;;
49784;SDS011;35679;38.732;-121.358;2023-07-29T01:44:41;4.65;;;4.00;;
49784;SDS011;35679;38.732;-121.358;2023-07-29T01:47:31;4.43;;;4.03;;
49784;SDS011;35679;38.732;-121.358;2023-07-29T01:50:21;4.43;;;3.97;;
49784;SDS011;35679;38.732;-121.358;2023-07-29T01:53:11;4.05;;;3.75;;
49784;SDS011;35679;38.732;-121.358;2023-07-29T01:56:01;4.05;;;3.55;;
49784;SDS011;35679;38.732;-121.358;2023-07-29T01:58:53;4.00;;;3.70;;
49784;SDS011;35679;38.732;-121.358;2023-07-29T02:01:43;5.18;;;3.75;;
49784;SDS011;35679;38.732;-121.358;2023-07-29T02:04:34;3.92;;;3.63;;
49784;SDS011;35679;38.732;-121.358;2023-07-29T02:07:25;4.20;;;3.80;;
49784;SDS011;35679;38.732;-121.358;2023-07-29T02:10:15;5.30;;;3.88;;
49784;SDS011;35679;38.732;-121.358;2023-07-29T02:13:04;4.40;;;4.00;;
49784;SDS011;35679;38.732;-121.358;2023-07-29T02:15:54;4.03;;;3.70;;
49784;SDS011;35679;38.732;-121.358;2023-07-29T02:18:44;4.70;;;3.97;;
49784;SDS011;35679;38.732;-121.358;2023-07-29T02:21:34;4.60;;;4.10;;
49784;SDS011;35679;38.732;-121.358;2023-07-29T02:24:24;4.35;;;3.95;;
49784;SDS011;35679;38.732;-121.358;2023-07-29T02:27:14;4.18;;;3.78;;
49784;SDS011;35679;38.732;-121.358;2023-07-29T02:30:04;4.03;;;3.60;;
49784;SDS011;35679;38.732;-121.358;2023-07-29T02:32:54;3.97;;;3.67;;
49784;SDS011;35679;38.732;-121.358;2023-07-29T02:35:44;3.80;;;3.50;;
49784;SDS011;35679;38.732;-121.358;2023-07-29T02:38:34;3.80;;;3.50;;
49784;SDS011;35679;38.732;-121.358;2023-07-29T02:41:24;3.65;;;2.95;;
49784;SDS011;35679;38.732;-121.358;2023-07-29T02:44:15;3.42;;;3.22;;
49784;SDS011;35679;38.732;-121.358;2023-07-29T02:47:05;4.10;;;3.55;;
49784;SDS011;35679;38.732;-121.358;2023-07-29T02:49:55;3.60;;;3.30;;
49784;SDS011;35679;38.732;-121.358;2023-07-29T02:52:45;3.88;;;2.85;;
49784;SDS011;35679;38.732;-121.358;2023-07-29T02:55:41;3.92;;;3.35;;
49784;SDS011;35679;38.732;-121.358;2023-07-29T02:58:31;4.28;;;3.53;;
49784;SDS011;35679;38.732;-121.358;2023-07-29T03:01:21;3.60;;;3.30;;
49784;SDS011;35679;38.732;-121.358;2023-07-29T03:04:13;3.40;;;3.10;;
49784;SDS011;35679;38.732;-121.358;2023-07-29T03:07:03;3.35;;;2.90;;
49784;SDS011;35679;38.732;-121.358;2023-07-29T03:09:53;3.42;;;3.13;;
49784;SDS011;35679;38.732;-121.358;2023-07-29T03:12:42;3.28;;;3.08;;
49784;SDS011;35679;38.732;-121.358;2023-07-29T03:15:31;3.58;;;3.28;;
49784;SDS011;35679;38.732;-121.358;2023-07-29T03:18:22;3.38;;;3.08;;
49784;SDS011;35679;38.732;-121.358;2023-07-29T03:21:12;3.60;;;3.30;;
49784;SDS011;35679;38.732;-121.358;2023-07-29T03:24:01;3.47;;;2.65;;
49784;SDS011;35679;38.732;-121.358;2023-07-29T03:26:50;6.88;;;2.55;;
49784;SDS011;35679;38.732;-121.358;2023-07-29T03:29:40;4.88;;;2.42;;
49784;SDS011;35679;38.732;-121.358;2023-07-29T03:32:30;3.20;;;2.50;;
49784;SDS011;35679;38.732;-121.358;2023-07-29T03:35:20;5.97;;;2.65;;
49784;SDS011;35679;38.732;-121.358;2023-07-29T03:38:10;2.70;;;2.40;;
49784;SDS011;35679;38.732;-121.358;2023-07-29T03:40:59;4.05;;;2.80;;
49784;SDS011;35679;38.732;-121.358;2023-07-29T03:43:51;5.05;;;2.60;;
49784;SDS011;35679;38.732;-121.358;2023-07-29T03:46:40;4.03;;;2.63;;
49784;SDS011;35679;38.732;-121.358;2023-07-29T03:49:31;6.65;;;2.67;;
49784;SDS011;35679;38.732;-121.358;2023-07-29T03:52:21;3.92;;;2.40;;
49784;SDS011;35679;38.732;-121.358;2023-07-29T03:55:11;3.78;;;2.88;;
49784;SDS011;35679;38.732;-121.358;2023-07-29T03:58:01;3.90;;;2.55;;
49784;SDS011;35679;38.732;-121.358;2023-07-29T04:00:50;4.53;;;2.30;;
49784;SDS011;35679;38.732;-121.358;2023-07-29T04:03:40;3.83;;;2.35;;
49784;SDS011;35679;38.732;-121.358;2023-07-29T04:06:29;3.38;;;2.60;;
49784;SDS011;35679;38.732;-121.358;2023-07-29T04:09:19;5.20;;;2.55;;
49784;SDS011;35679;38.732;-121.358;2023-07-29T04:12:09;3.05;;;2.40;;
49784;SDS011;35679;38.732;-121.358;2023-07-29T04:14:58;2.40;;;2.20;;
49784;SDS011;35679;38.732;-121.358;2023-07-29T04:17:48;2.42;;;2.10;;
49784;SDS011;35679;38.732;-121.358;2023-07-29T04:20:38;2.85;;;2.35;;
49784;SDS011;35679;38.732;-121.358;2023-07-29T04:23:28;2.90;;;2.25;;
49784;SDS011;35679;38.732;-121.358;2023-07-29T04:26:17;4.07;;;2.40;;
49784;SDS011;35679;38.732;-121.358;2023-07-29T04:29:07;2.88;;;2.63;;
49784;SDS011;35679;38.732;-121.358;2023-07-29T04:31:56;3.67;;;2.30;;
49784;SDS011;35679;38.732;-121.358;2023-07-29T04:34:46;3.53;;;2.70;;
49784;SDS011;35679;38.732;-121.358;2023-07-29T04:37:35;3.50;;;2.47;;
49784;SDS011;35679;38.732;-121.358;2023-07-29T04:40:25;2.60;;;2.40;;
49784;SDS011;35679;38.732;-121.358;2023-07-29T04:43:14;2.88;;;2.33;;
49784;SDS011;35679;38.732;-121.358;2023-07-29T04:46:06;2.40;;;2.20;;
49784;SDS011;35679;38.732;-121.358;2023-07-29T04:48:57;2.83;;;2.10;;
49784;SDS011;35679;38.732;-121.358;2023-07-29T04:51:46;3.17;;;2.47;;
49784;SDS011;35679;38.732;-121.358;2023-07-29T04:54:36;3.40;;;2.28;;
49784;SDS011;35679;38.732;-121.358;2023-07-29T04:57:25;2.88;;;2.00;;
49784;SDS011;35679;38.732;-121.358;2023-07-29T05:00:15;3.10;;;2.30;;
49784;SDS011;35679;38.732;-121.358;2023-07-29T05:03:05;2.78;;;2.30;;
49784;SDS011;35679;38.732;-121.358;2023-07-29T05:05:55;2.33;;;2.08;;
49784;SDS011;35679;38.732;-121.358;2023-07-29T05:08:47;2.47;;;2.05;;
49784;SDS011;35679;38.732;-121.358;2023-07-29T05:14:28;4.00;;;2.20;;
49784;SDS011;35679;38.732;-121.358;2023-07-29T05:17:17;2.25;;;2.00;;
49784;SDS011;35679;38.732;-121.358;2023-07-29T05:20:07;3.00;;;2.28;;
49784;SDS011;35679;38.732;-121.358;2023-07-29T05:22:57;2.25;;;2.03;;
49784;SDS011;35679;38.732;-121.358;2023-07-29T05:25:47;2.53;;;2.05;;
49784;SDS011;35679;38.732;-121.358;2023-07-29T05:28:37;2.42;;;2.10;;
49784;SDS011;35679;38.732;-121.358;2023-07-29T05:31:27;2.55;;;2.10;;
49784;SDS011;35679;38.732;-121.358;2023-07-29T05:34:16;3.65;;;2.20;;
49784;SDS011;35679;38.732;-121.358;2023-07-29T05:37:05;2.90;;;2.70;;
49784;SDS011;35679;38.732;-121.358;2023-07-29T05:39:55;2.35;;;2.15;;
49784;SDS011;35679;38.732;-121.358;2023-07-29T05:42:44;2.50;;;2.08;;
49784;SDS011;35679;38.732;-121.358;2023-07-29T05:45:34;2.15;;;2.00;;
49784;SDS011;35679;38.732;-121.358;2023-07-29T05:48:24;2.40;;;2.20;;
49784;SDS011;35679;38.732;-121.358;2023-07-29T05:51:13;2.30;;;2.05;;
49784;SDS011;35679;38.732;-121.358;2023-07-29T05:54:03;2.05;;;1.90;;
49784;SDS011;35679;38.732;-121.358;2023-07-29T05:56:53;2.47;;;2.17;;
49784;SDS011;35679;38.732;-121.358;2023-07-29T05:59:42;3.22;;;2.20;;
49784;SDS011;35679;38.732;-121.358;2023-07-29T06:02:32;2.47;;;2.10;;
49784;SDS011;35679;38.732;-121.358;2023-07-29T06:05:22;2.63;;;1.92;;
49784;SDS011;35679;38.732;-121.358;2023-07-29T06:08:11;2.45;;;2.08;;
49784;SDS011;35679;38.732;-121.358;2023-07-29T06:11:01;3.95;;;1.98;;
49784;SDS011;35679;38.732;-121.358;2023-07-29T06:13:51;2.13;;;1.90;;
49784;SDS011;35679;38.732;-121.358;2023-07-29T06:16:40;2.72;;;2.38;;
49784;SDS011;35679;38.732;-121.358;2023-07-29T06:19:29;2.63;;;2.00;;
49784;SDS011;35679;38.732;-121.358;2023-07-29T06:22:19;2.13;;;1.92;;
49784;SDS011;35679;38.732;-121.358;2023-07-29T06:25:08;2.25;;;2.03;;
49784;SDS011;35679;38.732;-121.358;2023-07-29T06:27:58;2.17;;;1.98;;
49784;SDS011;35679;38.732;-121.358;2023-07-29T06:30:47;2.55;;;2.20;;
49784;SDS011;35679;38.732;-121.358;2023-07-29T06:33:37;2.53;;;2.22;;
49784;SDS011;35679;38.732;-121.358;2023-07-29T06:36:26;4.20;;;1.90;;
49784;SDS011;35679;38.732;-121.358;2023-07-29T06:39:16;2.67;;;2.30;;
49784;SDS011;35679;38.732;-121.358;2023-07-29T06:42:05;2.97;;;2.10;;
49784;SDS011;35679;38.732;-121.358;2023-07-29T06:44:55;2.83;;;2.20;;
49784;SDS011;35679;38.732;-121.358;2023-07-29T06:47:44;2.70;;;1.90;;
49784;SDS011;35679;38.732;-121.358;2023-07-29T06:50:34;2.45;;;2.03;;
49784;SDS011;35679;38.732;-121.358;2023-07-29T06:53:23;2.95;;;2.30;;
49784;SDS011;35679;38.732;-121.358;2023-07-29T06:56:14;2.03;;;1.92;;
49784;SDS011;35679;38.732;-121.358;2023-07-29T06:59:03;3.03;;;2.25;;
49784;SDS011;35679;38.732;-121.358;2023-07-29T07:01:52;2.55;;;2.35;;
49784;SDS011;35679;38.732;-121.358;2023-07-29T07:04:42;2.83;;;2.03;;
49784;SDS011;35679;38.732;-121.358;2023-07-29T07:07:32;2.53;;;1.85;;
49784;SDS011;35679;38.732;-121.358;2023-07-29T07:10:22;1.98;;;1.88;;
49784;SDS011;35679;38.732;-121.358;2023-07-29T07:13:11;2.00;;;1.90;;
49784;SDS011;35679;38.732;-121.358;2023-07-29T07:16:00;2.00;;;1.80;;
49784;SDS011;35679;38.732;-121.358;2023-07-29T07:18:50;2.72;;;2.10;;
49784;SDS011;35679;38.732;-121.358;2023-07-29T07:21:40;3.17;;;2.55;;
49784;SDS011;35679;38.732;-121.358;2023-07-29T07:24:29;2.20;;;2.00;;
49784;SDS011;35679;38.732;-121.358;2023-07-29T07:27:19;2.33;;;2.00;;
49784;SDS011;35679;38.732;-121.358;2023-07-29T07:30:08;2.55;;;2.20;;
49784;SDS011;35679;38.732;-121.358;2023-07-29T07:32:58;3.33;;;2.25;;
49784;SDS011;35679;38.732;-121.358;2023-07-29T07:38:39;2.03;;;1.80;;
49784;SDS011;35679;38.732;-121.358;2023-07-29T07:41:28;2.13;;;1.75;;
49784;SDS011;35679;38.732;-121.358;2023-07-29T07:44:18;4.47;;;2.00;;
49784;SDS011;35679;38.732;-121.358;2023-07-29T07:47:08;3.65;;;1.80;;
49784;SDS011;35679;38.732;-121.358;2023-07-29T07:49:57;2.30;;;2.08;;
49784;SDS011;35679;38.732;-121.358;2023-07-29T07:52:47;2.17;;;1.70;;
49784;SDS011;35679;38.732;-121.358;2023-07-29T07:55:36;3.70;;;1.65;;
49784;SDS011;35679;38.732;-121.358;2023-07-29T07:58:26;1.85;;;1.70;;
49784;SDS011;35679;38.732;-121.358;2023-07-29T08:01:15;4.55;;;1.95;;
49784;SDS011;35679;38.732;-121.358;2023-07-29T08:04:05;1.90;;;1.80;;
49784;SDS011;35679;38.732;-121.358;2023-07-29T08:06:54;2.53;;;2.05;;
49784;SDS011;35679;38.732;-121.358;2023-07-29T08:09:44;2.80;;;1.90;;
49784;SDS011;35679;38.732;-121.358;2023-07-29T08:12:33;2.00;;;1.80;;
49784;SDS011;35679;38.732;-121.358;2023-07-29T08:15:23;2.63;;;1.83;;
49784;SDS011;35679;38.732;-121.358;2023-07-29T08:18:12;3.05;;;1.88;;
49784;SDS011;35679;38.732;-121.358;2023-07-29T08:21:02;4.95;;;2.20;;
49784;SDS011;35679;38.732;-121.358;2023-07-29T08:23:51;2.22;;;1.90;;
49784;SDS011;35679;38.732;-121.358;2023-07-29T08:26:40;2.20;;;2.00;;
49784;SDS011;35679;38.732;-121.358;2023-07-29T08:29:30;2.58;;;1.90;;
49784;SDS011;35679;38.732;-121.358;2023-07-29T08:32:19;2.80;;;1.90;;
49784;SDS011;35679;38.732;-121.358;2023-07-29T08:35:09;2.28;;;1.90;;
49784;SDS011;35679;38.732;-121.358;2023-07-29T08:37:58;2.90;;;1.83;;
49784;SDS011;35679;38.732;-121.358;2023-07-29T08:40:57;3.22;;;1.98;;
49784;SDS011;35679;38.732;-121.358;2023-07-29T08:44:17;2.80;;;1.95;;
49784;SDS011;35679;38.732;-121.358;2023-07-29T08:47:11;2.30;;;2.10;;
49784;SDS011;35679;38.732;-121.358;2023-07-29T08:50:02;2.22;;;2.03;;
49784;SDS011;35679;38.732;-121.358;2023-07-29T08:52:52;2.25;;;2.08;;
49784;SDS011;35679;38.732;-121.358;2023-07-29T08:55:42;2.30;;;1.95;;
49784;SDS011;35679;38.732;-121.358;2023-07-29T08:58:32;2.00;;;1.70;;
49784;SDS011;35679;38.732;-121.358;2023-07-29T09:01:22;5.00;;;2.00;;
49784;SDS011;35679;38.732;-121.358;2023-07-29T09:04:12;2.47;;;2.00;;
49784;SDS011;35679;38.732;-121.358;2023-07-29T09:07:01;2.60;;;1.90;;
49784;SDS011;35679;38.732;-121.358;2023-07-29T09:09:51;4.03;;;2.33;;
49784;SDS011;35679;38.732;-121.358;2023-07-29T09:12:40;2.60;;;2.20;;
49784;SDS011;35679;38.732;-121.358;2023-07-29T09:15:33;2.35;;;2.10;;
49784;SDS011;35679;38.732;-121.358;2023-07-29T09:18:25;2.03;;;1.87;;
49784;SDS011;35679;38.732;-121.358;2023-07-29T09:21:17;2.88;;;2.22;;
49784;SDS011;35679;38.732;-121.358;2023-07-29T09:24:12;2.55;;;2.30;;
49784;SDS011;35679;38.732;-121.358;2023-07-29T09:27:07;2.97;;;2.00;;
49784;SDS011;35679;38.732;-121.358;2023-07-29T09:29:57;3.38;;;2.08;;
49784;SDS011;35679;38.732;-121.358;2023-07-29T09:32:52;2.90;;;2.30;;
49784;SDS011;35679;38.732;-121.358;2023-07-29T09:35:45;2.58;;;2.05;;
49784;SDS011;35679;38.732;-121.358;2023-07-29T09:38:35;3.92;;;2.08;;
49784;SDS011;35679;38.732;-121.358;2023-07-29T09:41:26;4.57;;;2.40;;
49784;SDS011;35679;38.732;-121.358;2023-07-29T09:44:16;2.80;;;2.08;;
49784;SDS011;35679;38.732;-121.358;2023-07-29T09:47:06;2.13;;;1.92;;
49784;SDS011;35679;38.732;-121.358;2023-07-29T09:49:56;3.45;;;2.20;;
49784;SDS011;35679;38.732;-121.358;2023-07-29T09:52:45;2.80;;;2.25;;
49784;SDS011;35679;38.732;-121.358;2023-07-29T09:55:36;2.23;;;2.00;;
49784;SDS011;35679;38.732;-121.358;2023-07-29T09:58:26;3.00;;;2.33;;
49784;SDS011;35679;38.732;-121.358;2023-07-29T10:01:16;3.75;;;2.03;;
49784;SDS011;35679;38.732;-121.358;2023-07-29T10:04:07;2.38;;;2.08;;
49784;SDS011;35679;38.732;-121.358;2023-07-29T10:07:00;3.33;;;2.17;;
49784;SDS011;35679;38.732;-121.358;2023-07-29T10:09:51;2.70;;;2.38;;
49784;SDS011;35679;38.732;-121.358;2023-07-29T10:12:41;2.92;;;2.35;;
49784;SDS011;35679;38.732;-121.358;2023-07-29T10:15:32;3.30;;;2.20;;
49784;SDS011;35679;38.732;-121.358;2023-07-29T10:18:22;2.47;;;2.17;;
49784;SDS011;35679;38.732;-121.358;2023-07-29T10:21:13;4.38;;;2.35;;
49784;SDS011;35679;38.732;-121.358;2023-07-29T10:24:03;2.33;;;2.13;;
49784;SDS011;35679;38.732;-121.358;2023-07-29T10:26:58;3.03;;;2.30;;
49784;SDS011;35679;38.732;-121.358;2023-07-29T10:29:50;3.22;;;2.42;;
49784;SDS011;35679;38.732;-121.358;2023-07-29T10:32:42;2.40;;;2.20;;
49784;SDS011;35679;38.732;-121.358;2023-07-29T10:35:33;3.08;;;2.53;;
49784;SDS011;35679;38.732;-121.358;2023-07-29T10:38:23;4.72;;;2.45;;
49784;SDS011;35679;38.732;-121.358;2023-07-29T10:41:14;4.10;;;2.20;;
49784;SDS011;35679;38.732;-121.358;2023-07-29T10:44:03;3.55;;;2.60;;
49784;SDS011;35679;38.732;-121.358;2023-07-29T10:46:52;3.47;;;2.50;;
49784;SDS011;35679;38.732;-121.358;2023-07-29T10:49:42;2.65;;;2.35;;
49784;SDS011;35679;38.732;-121.358;2023-07-29T10:55:29;2.95;;;2.00;;
49784;SDS011;35679;38.732;-121.358;2023-07-29T10:58:22;6.07;;;2.47;;
49784;SDS011;35679;38.732;-121.358;2023-07-29T11:01:20;3.13;;;2.30;;
49784;SDS011;35679;38.732;-121.358;2023-07-29T11:10:04;4.57;;;2.55;;
49784;SDS011;35679;38.732;-121.358;2023-07-29T11:12:54;4.82;;;2.10;;
49784;SDS011;35679;38.732;-121.358;2023-07-29T11:15:44;5.13;;;2.53;;
49784;SDS011;35679;38.732;-121.358;2023-07-29T11:18:35;3.22;;;2.08;;
49784;SDS011;35679;38.732;-121.358;2023-07-29T11:21:25;3.33;;;2.15;;
49784;SDS011;35679;38.732;-121.358;2023-07-29T11:24:17;5.88;;;2.53;;
49784;SDS011;35679;38.732;-121.358;2023-07-29T11:27:11;2.90;;;2.30;;
49784;SDS011;35679;38.732;-121.358;2023-07-29T11:30:01;10.15;;;2.40;;
49784;SDS011;35679;38.732;-121.358;2023-07-29T11:32:53;4.30;;;2.72;;
49784;SDS011;35679;38.732;-121.358;2023-07-29T11:35:44;3.75;;;2.63;;
49784;SDS011;35679;38.732;-121.358;2023-07-29T11:38:33;4.78;;;2.30;;
49784;SDS011;35679;38.732;-121.358;2023-07-29T11:41:26;4.50;;;2.33;;
49784;SDS011;35679;38.732;-121.358;2023-07-29T11:44:19;5.80;;;2.17;;
49784;SDS011;35679;38.732;-121.358;2023-07-29T11:49:58;4.75;;;2.55;;
49784;SDS011;35679;38.732;-121.358;2023-07-29T11:52:50;3.65;;;2.45;;
49784;SDS011;35679;38.732;-121.358;2023-07-29T11:55:40;3.72;;;2.42;;
49784;SDS011;35679;38.732;-121.358;2023-07-29T11:58:30;3.42;;;2.40;;
49784;SDS011;35679;38.732;-121.358;2023-07-29T12:01:21;4.00;;;2.50;;
49784;SDS011;35679;38.732;-121.358;2023-07-29T12:04:12;5.00;;;2.28;;
49784;SDS011;35679;38.732;-121.358;2023-07-29T12:07:02;5.18;;;2.63;;
49784;SDS011;35679;38.732;-121.358;2023-07-29T12:09:52;6.75;;;2.67;;
49784;SDS011;35679;38.732;-121.358;2023-07-29T12:12:45;4.75;;;2.70;;
49784;SDS011;35679;38.732;-121.358;2023-07-29T12:15:38;3.10;;;2.47;;
49784;SDS011;35679;38.732;-121.358;2023-07-29T12:18:32;5.95;;;3.28;;
49784;SDS011;35679;38.732;-121.358;2023-07-29T12:21:22;4.68;;;2.60;;
49784;SDS011;35679;38.732;-121.358;2023-07-29T12:24:14;4.00;;;2.50;;
49784;SDS011;35679;38.732;-121.358;2023-07-29T12:27:04;11.48;;;2.97;;
49784;SDS011;35679;38.732;-121.358;2023-07-29T12:29:53;8.88;;;3.38;;
49784;SDS011;35679;38.732;-121.358;2023-07-29T12:32:46;7.55;;;2.67;;
49784;SDS011;35679;38.732;-121.358;2023-07-29T12:35:37;5.18;;;2.40;;
49784;SDS011;35679;38.732;-121.358;2023-07-29T12:38:27;7.00;;;2.75;;
49784;SDS011;35679;38.732;-121.358;2023-07-29T12:41:17;8.13;;;2.80;;
49784;SDS011;35679;38.732;-121.358;2023-07-29T12:44:07;7.55;;;3.10;;
49784;SDS011;35679;38.732;-121.358;2023-07-29T12:46:56;13.00;;;3.47;;
49784;SDS011;35679;38.732;-121.358;2023-07-29T12:49:46;10.93;;;4.43;;
49784;SDS011;35679;38.732;-121.358;2023-07-29T12:52:35;6.60;;;2.65;;
49784;SDS011;35679;38.732;-121.358;2023-07-29T12:55:24;9.10;;;3.10;;
49784;SDS011;35679;38.732;-121.358;2023-07-29T12:58:14;10.60;;;3.38;;
49784;SDS011;35679;38.732;-121.358;2023-07-29T13:01:03;6.40;;;2.67;;
49784;SDS011;35679;38.732;-121.358;2023-07-29T13:03:53;11.93;;;2.97;;
49784;SDS011;35679;38.732;-121.358;2023-07-29T13:06:43;8.88;;;2.78;;
49784;SDS011;35679;38.732;-121.358;2023-07-29T13:09:32;7.45;;;2.75;;
49784;SDS011;35679;38.732;-121.358;2023-07-29T13:12:22;75.03;;;7.20;;
49784;SDS011;35679;38.732;-121.358;2023-07-29T13:15:11;52.30;;;5.45;;
49784;SDS011;35679;38.732;-121.358;2023-07-29T13:18:01;50.70;;;4.70;;
49784;SDS011;35679;38.732;-121.358;2023-07-29T13:20:50;67.13;;;7.43;;
49784;SDS011;35679;38.732;-121.358;2023-07-29T13:23:40;11.02;;;3.55;;
49784;SDS011;35679;38.732;-121.358;2023-07-29T13:26:29;10.75;;;3.25;;
49784;SDS011;35679;38.732;-121.358;2023-07-29T13:29:18;9.70;;;2.80;;
49784;SDS011;35679;38.732;-121.358;2023-07-29T13:32:08;5.57;;;2.55;;
49784;SDS011;35679;38.732;-121.358;2023-07-29T13:34:58;5.10;;;2.60;;
49784;SDS011;35679;38.732;-121.358;2023-07-29T13:37:47;6.93;;;2.90;;
49784;SDS011;35679;38.732;-121.358;2023-07-29T13:40:37;8.05;;;3.13;;
49784;SDS011;35679;38.732;-121.358;2023-07-29T13:43:26;5.95;;;2.55;;
49784;SDS011;35679;38.732;-121.358;2023-07-29T13:46:16;6.65;;;2.80;;
49784;SDS011;35679;38.732;-121.358;2023-07-29T13:49:05;12.20;;;3.58;;
49784;SDS011;35679;38.732;-121.358;2023-07-29T13:51:54;5.50;;;2.58;;
49784;SDS011;35679;38.732;-121.358;2023-07-29T13:54:44;11.23;;;3.22;;
49784;SDS011;35679;38.732;-121.358;2023-07-29T13:57:33;10.90;;;3.00;;
49784;SDS011;35679;38.732;-121.358;2023-07-29T14:00:22;10.18;;;2.60;;
49784;SDS011;35679;38.732;-121.358;2023-07-29T14:03:14;5.32;;;2.55;;
49784;SDS011;35679;38.732;-121.358;2023-07-29T14:06:03;4.82;;;2.67;;
49784;SDS011;35679;38.732;-121.358;2023-07-29T14:08:53;6.22;;;3.20;;
49784;SDS011;35679;38.732;-121.358;2023-07-29T14:11:42;7.53;;;2.70;;
49784;SDS011;35679;38.732;-121.358;2023-07-29T14:14:32;7.80;;;3.28;;
49784;SDS011;35679;38.732;-121.358;2023-07-29T14:17:21;6.10;;;2.70;;
49784;SDS011;35679;38.732;-121.358;2023-07-29T14:20:10;4.82;;;2.92;;
49784;SDS011;35679;38.732;-121.358;2023-07-29T14:23:00;8.57;;;3.03;;
49784;SDS011;35679;38.732;-121.358;2023-07-29T14:25:50;5.30;;;2.85;;
49784;SDS011;35679;38.732;-121.358;2023-07-29T14:28:39;8.40;;;3.53;;
49784;SDS011;35679;38.732;-121.358;2023-07-29T14:31:28;5.72;;;2.65;;
49784;SDS011;35679;38.732;-121.358;2023-07-29T14:34:18;6.97;;;3.10;;
49784;SDS011;35679;38.732;-121.358;2023-07-29T14:37:07;4.93;;;2.85;;
49784;SDS011;35679;38.732;-121.358;2023-07-29T14:40:00;6.43;;;3.03;;
49784;SDS011;35679;38.732;-121.358;2023-07-29T14:42:50;11.25;;;3.10;;
49784;SDS011;35679;38.732;-121.358;2023-07-29T14:45:39;8.57;;;3.25;;
49784;SDS011;35679;38.732;-121.358;2023-07-29T14:48:29;9.15;;;2.78;;
49784;SDS011;35679;38.732;-121.358;2023-07-29T14:51:18;3.83;;;2.90;;
49784;SDS011;35679;38.732;-121.358;2023-07-29T14:54:08;4.78;;;2.75;;
49784;SDS011;35679;38.732;-121.358;2023-07-29T14:56:57;7.82;;;3.40;;
49784;SDS011;35679;38.732;-121.358;2023-07-29T14:59:46;5.32;;;3.00;;
49784;SDS011;35679;38.732;-121.358;2023-07-29T15:02:36;6.57;;;2.90;;
49784;SDS011;35679;38.732;-121.358;2023-07-29T15:05:25;5.63;;;3.17;;
49784;SDS011;35679;38.732;-121.358;2023-07-29T15:08:15;6.13;;;2.83;;
49784;SDS011;35679;38.732;-121.358;2023-07-29T15:11:04;3.50;;;3.05;;
49784;SDS011;35679;38.732;-121.358;2023-07-29T15:13:54;5.88;;;3.28;;
49784;SDS011;35679;38.732;-121.358;2023-07-29T15:16:43;5.55;;;2.88;;
49784;SDS011;35679;38.732;-121.358;2023-07-29T15:19:33;5.05;;;2.88;;
49784;SDS011;35679;38.732;-121.358;2023-07-29T15:22:23;3.95;;;2.80;;
49784;SDS011;35679;38.732;-121.358;2023-07-29T15:25:12;5.80;;;3.10;;
49784;SDS011;35679;38.732;-121.358;2023-07-29T15:28:01;4.78;;;3.03;;
49784;SDS011;35679;38.732;-121.358;2023-07-29T15:30:52;3.83;;;3.20;;
49784;SDS011;35679;38.732;-121.358;2023-07-29T15:33:42;7.03;;;3.22;;
49784;SDS011;35679;38.732;-121.358;2023-07-29T15:36:31;4.93;;;3.00;;
49784;SDS011;35679;38.732;-121.358;2023-07-29T15:39:21;6.47;;;3.13;;
49784;SDS011;35679;38.732;-121.358;2023-07-29T15:42:11;5.53;;;3.17;;
49784;SDS011;35679;38.732;-121.358;2023-07-29T15:45:00;4.43;;;2.95;;
49784;SDS011;35679;38.732;-121.358;2023-07-29T15:47:49;3.60;;;3.28;;
49784;SDS011;35679;38.732;-121.358;2023-07-29T15:50:42;4.60;;;2.92;;
49784;SDS011;35679;38.732;-121.358;2023-07-29T15:53:31;4.00;;;3.38;;
49784;SDS011;35679;38.732;-121.358;2023-07-29T15:56:20;5.78;;;3.88;;
49784;SDS011;35679;38.732;-121.358;2023-07-29T15:59:10;3.42;;;3.05;;
49784;SDS011;35679;38.732;-121.358;2023-07-29T16:01:59;5.05;;;3.20;;
49784;SDS011;35679;38.732;-121.358;2023-07-29T16:04:49;6.88;;;3.53;;
49784;SDS011;35679;38.732;-121.358;2023-07-29T16:07:38;4.43;;;3.05;;
49784;SDS011;35679;38.732;-121.358;2023-07-29T16:10:28;6.47;;;3.38;;
49784;SDS011;35679;38.732;-121.358;2023-07-29T16:13:18;4.05;;;2.92;;
49784;SDS011;35679;38.732;-121.358;2023-07-29T16:16:07;6.95;;;3.33;;
49784;SDS011;35679;38.732;-121.358;2023-07-29T16:18:57;7.15;;;3.20;;
49784;SDS011;35679;38.732;-121.358;2023-07-29T16:21:46;5.28;;;3.17;;
49784;SDS011;35679;38.732;-121.358;2023-07-29T16:24:36;4.22;;;3.05;;
49784;SDS011;35679;38.732;-121.358;2023-07-29T16:27:25;3.97;;;2.90;;
49784;SDS011;35679;38.732;-121.358;2023-07-29T16:30:16;3.58;;;2.80;;
49784;SDS011;35679;38.732;-121.358;2023-07-29T16:33:05;3.83;;;2.88;;
49784;SDS011;35679;38.732;-121.358;2023-07-29T16:35:55;6.40;;;2.92;;
49784;SDS011;35679;38.732;-121.358;2023-07-29T16:38:44;3.97;;;2.95;;
49784;SDS011;35679;38.732;-121.358;2023-07-29T16:41:33;6.68;;;3.22;;
49784;SDS011;35679;38.732;-121.358;2023-07-29T16:44:43;4.65;;;3.10;;
49784;SDS011;35679;38.732;-121.358;2023-07-29T16:47:32;4.53;;;3.17;;